1965 Tropical Cyclone MARIE (1965053S12137)


IBTrACS version v04r00. Visit IBTrACS website for data access.
Please direct all questions to the IBTrACS Q and A forum

Storm track - Intensity - Wind Radii - Intensity Data - Source Data - All data

Summary Information

Storm ID 1965053S12137
Start Feb 21 23Z
Landfall Feb 27 09Z, Feb 28 11Z
Max Intensity 40 kt (Feb 25 00Z), 994 mb (Feb 25 09Z)
End Mar 1 12Z
ATCF IDs ,SH291965
Track status Best track data.

Storm track plot

Map of storm track

Intensity plots

Map of storm track

Radial wind information

No radial wind information for this storm


Position and Intensity Table

BASIN ISO_TIME_________ NATURE LAT LON WMO PRES BOM PRES DS824 WIND DS824 PRES NEUMANN WIND NEUMANN PRES
degrees north degrees east mb mb kts mb kts mb
SP 1965-02-21 23:00:00 NR -11.80 137.00
SP 23:30:00 NR -11.78 137.00 999 999
SP 1965-02-22 00:00:00 TS -11.76 137.00 999 30 999 30 999
SP 03:00:00 TS -11.70 136.92 999 30 999 30 999
SP 06:00:00 TS -11.62 136.87 999 30 999 30 999
SP 09:00:00 TS -11.50 136.90 999 30 999 32 998
SP 11:00:00 TS -11.40 136.96 999 30 999 34 998
SP 11:30:00 TS -11.38 136.99 999 999 30 999 34 998
SP 12:00:00 TS -11.35 137.01 998 30 999 35 998
SP 15:00:00 TS -11.22 137.21 998 35 997
SP 17:00:00 TS -11.16 137.36 998 35 997
SP 18:00:00 TS -11.14 137.42 997 35 997
SP 21:00:00 TS -11.12 137.55 997 35 996
SP 23:00:00 TS -11.14 137.59 997 997 35 996
SP 1965-02-23 00:00:00 TS -11.17 137.59 996 35 996
SP 03:00:00 TS -11.28 137.54 996 35 996
SP 06:00:00 TS -11.42 137.44 996 35 996
SP 09:00:00 TS -11.51 137.32 996 35 996
SP 11:00:00 TS -11.52 137.23 996 35 996
SP 11:30:00 TS -11.52 137.21 996 996 35 996
SP 12:00:00 TS -11.51 137.19 996 35 996 35 996
SP 15:00:00 TS -11.37 137.07 996 35 996 35 996
SP 18:00:00 TS -11.19 136.95 996 35 996 35 996
SP 21:00:00 TS -11.06 136.83 996 35 996 35 996
SP 23:00:00 TS -11.01 136.76 996 35 996 35 996
SP 23:30:00 TS -11.00 136.74 996 996 35 996 35 996
SP 1965-02-24 00:00:00 TS -11.00 136.72 996 35 996 35 996
SP 03:00:00 TS -11.00 136.63 996 35 996
SP 06:00:00 TS -11.05 136.55 996 35 996
SP 08:00:00 TS -11.08 136.50 996 996 35 996
SP 09:00:00 TS -11.09 136.48 35 996
SP 11:00:00 TS -11.13 136.45 35 996
SP 12:00:00 TS -11.14 136.43 35 996
SP 15:00:00 TS -11.22 136.39 35 996
SP 18:00:00 TS -11.29 136.36 35 996
SP 21:00:00 TS -11.32 136.32 37 995
SP 23:00:00 TS -11.34 136.28 39 995
SP 23:30:00 TS -11.35 136.27 996 996 39 995
SP 1965-02-25 00:00:00 TS -11.35 136.26 995 35 996 40 995
SP 03:00:00 TS -11.40 136.18 995 36 995 40 995
SP 06:00:00 TS -11.45 136.08 995 37 995 40 995
SP 09:00:00 TS -11.51 135.95 995 38 995 40 994
SP 11:00:00 TS -11.56 135.85 995 39 995 40 994
SP 11:30:00 TS -11.58 135.83 995 995 39 995 40 994
SP 12:00:00 TS -11.59 135.80 994 40 995 40 994
SP 15:00:00 TS -11.70 135.66 994 40 994 40 994
SP 18:00:00 TS -11.79 135.52 994 40 994 40 994
SP 21:00:00 TS -11.83 135.38 994 40 994 40 994
SP 23:00:00 TS -11.82 135.28 994 40 994 40 994
SP 23:30:00 TS -11.82 135.26 994 994 40 994 40 994
SP 1965-02-26 00:00:00 TS -11.82 135.24 994 40 994 40 994
SP 03:00:00 TS -11.76 135.10 994 40 994 40 994
SI 06:00:00 TS -11.68 134.96 994 40 994 40 994
SI 09:00:00 TS -11.60 134.85 994 40 994 40 994
SI 11:00:00 TS -11.55 134.77 994 40 994 40 994
SI 11:30:00 TS -11.54 134.75 994 994 40 994 40 994
SI 12:00:00 TS -11.53 134.73 994 40 994 40 994
SI 15:00:00 TS -11.47 134.60 994 40 994 40 994
SI 18:00:00 TS -11.42 134.46 994 40 994 40 994
SI 21:00:00 TS -11.40 134.32 994 40 994 40 994
SI 23:00:00 TS -11.40 134.19 994 40 994 40 994
SI 23:30:00 TS -11.40 134.15 994 994 40 994 40 994
SI 1965-02-27 00:00:00 TS -11.40 134.11 994 40 994 40 994
SI 03:00:00 TS -11.41 133.78 994 40 994 40 994
SI 06:00:00 TS -11.45 133.39 994 40 994 40 994
SI 09:00:00 TS -11.50 132.99 994 40 994 40 994
SI 11:00:00 TS -11.55 132.74 994 40 994 40 994
SI 11:30:00 TS -11.56 132.68 994 994 40 994 40 994
SI 12:00:00 TS -11.57 132.62 994 40 994 40 994
SI 15:00:00 TS -11.62 132.35 994 38 994 40 994
SI 17:00:00 TS -11.63 132.23 994 994 37 994 40 994
SI 18:00:00 TS -11.60 132.27 994 37 995 40 995
SI 21:00:00 TS -11.59 132.24 995 36 995 37 995
SI 23:00:00 TS -11.61 132.19 995 35 995 35 995
SI 23:30:00 TS -11.58 132.26 996 996 35 995 35 995
SI 1965-02-28 00:00:00 TS -11.61 132.22 996 35 996 35 996
SI 03:00:00 TS -11.75 132.02 996 35 996 35 996
SI 06:00:00 TS -11.93 131.82 997 35 997 35 997
SI 09:00:00 TS -12.14 131.62 997 35 997 35 997
SI 11:30:00 TS -12.34 131.46 998 998 35 997 35 997
SI 12:00:00 TS -12.38 131.42 998 35 998 35 998
SI 15:00:00 TS -12.59 131.21 998 33 998 32 998
SI 18:00:00 TS -12.86 131.00 998 32 998 30 999
SI 21:00:00 TS -13.23 130.83 998 31 998 30 999
SI 23:30:00 TS -13.61 130.71 999 999 30 998 30 999
SI 1965-03-01 00:00:00 TS -13.63 130.69 999 30 999 30 999
SI 03:00:00 TS -14.07 130.57 999 30 999 30 999
SI 06:00:00 TS -14.57 130.46 999 30 999 30 999
SI 09:00:00 TS -15.07 130.37 999 30 999
SI 11:30:00 TS -15.62 130.31 999 999 30 999
SI 12:00:00 TS -15.70 130.30 30 999

Source Information

Agency Information
USA bsh291965.txt
TOKYO
CMA
HKO
NEWDELHI
REUNION
BOM IDCKMSTM0S.csv:Line=4211:MARIE
NADI
WELLINGTON
DS824 aus_area.dat:371:MARIE
TD9636 cons_worldwide_trop_cyclone_18710101-19891231-006:Line=7192
TD9635
NEUMANN tracks.sh:Storm=140:MARIE:BSH2965:BM342
MLC

All available IBTrACS Data

SEASON BASIN SUBBASIN ISO_TIME_________ NATURE LAT LON WMO PRES WMO AGENCY DIST2LAND LANDFALL IFLAG USA AGENCY USA ATCF_ID USA LAT USA LON USA SSHS BOM LAT BOM LON BOM PRES BOM PRES_METHOD DS824 LAT DS824 LON DS824 STAGE DS824 WIND DS824 PRES TD9636 LAT TD9636 LON TD9636 STAGE NEUMANN LAT NEUMANN LON NEUMANN CLASS NEUMANN WIND NEUMANN PRES STORM SPEED STORM DIR
Year degrees north degrees east mb km km degrees north degrees east 1 degrees north degrees east mb degrees north degrees east kts mb degrees north degrees east degrees north degrees east kts mb kts degrees
1965 SP EA 1965-02-21 23:00:00 NR -11.80 137.00 55 55 __________O___ -1 -11.80 137.00 1 2 0
1965 SP EA 23:30:00 NR -11.78 137.00 999 bom 55 55 ______O___P___ -1 -11.80 137.00 999 -11.77 137.00 1 2 15
1965 SP EA 1965-02-22 00:00:00 TS -11.76 137.00 55 55 O_____P__OP_O_ jtwc_sh SH291965 -11.70 137.00 -1 -11.81 136.97 999 -11.80 137.00 TC 30 999 -11.74 137.00 1 -11.80 137.10 TC 30 999 2 319
1965 SP EA 03:00:00 TS -11.70 136.92 55 55 P_____P__PP_P_ SH291965 -11.54 136.99 -1 -11.89 136.81 999 -11.86 136.81 TC 30 999 -11.57 136.99 1 -11.80 136.94 TC 30 999 2 317
1965 SP EA 06:00:00 TS -11.62 136.87 62 62 O_____P__PP_O_ jtwc_sh SH291965 -11.40 137.00 -1 -11.92 136.69 999 -11.88 136.67 TC 30 999 -11.41 137.00 1 -11.70 136.90 TC 30 999 2 0
1965 SP EA 09:00:00 TS -11.50 136.90 70 70 P_____P__PP_P_ SH291965 -11.28 137.03 -1 -11.85 136.65 999 -11.84 136.61 TC 30 999 -11.28 137.04 1 -11.44 137.04 TC 32 998 3 21
1965 SP EA 11:00:00 TS -11.40 136.96 86 86 P_____P__PO_P_ SH291965 -11.22 137.07 -1 -11.74 136.68 999 -11.76 136.65 TC 30 999 -11.20 137.10 1 -11.27 137.21 TC 34 998 4 33
1965 SP EA 11:30:00 TS -11.38 136.99 999 bom 86 86 P_____O__PP_P_ SH291965 -11.21 137.08 -1 -11.70 136.70 999 -11.73 136.67 TC 30 999 -11.18 137.12 1 -11.23 137.25 TC 34 998 4 45
1965 SP EA 12:00:00 TS -11.35 137.01 86 86 O_____P__OP_O_ jtwc_sh SH291965 -11.20 137.10 -1 -11.66 136.72 998 -11.70 136.70 TC 30 999 -11.17 137.14 1 -11.20 137.30 TC 35 998 5 55
1965 SP EA 15:00:00 TS -11.22 137.21 117 117 P_____P__PP_P_ SH291965 -11.14 137.24 -1 -11.36 136.92 998 -11.45 136.94 TC -11.09 137.28 1 -11.16 137.65 TC 35 997 5 60
1965 SP EA 17:00:00 TS -11.16 137.36 bom 130 130 P_____I__PP_P_ SH291965 -11.11 137.35 -1 -11.20 137.10 998 -11.28 137.12 TC -11.07 137.38 1 -11.18 137.85 TC 35 997 4 68
1965 SP EA 18:00:00 TS -11.14 137.42 140 140 O_____P__OP_O_ jtwc_sh SH291965 -11.10 137.40 -1 -11.16 137.20 997 -11.20 137.20 TC -11.06 137.43 1 -11.20 137.90 TC 35 997 3 79
1965 SP EA 21:00:00 TS -11.12 137.55 145 145 P_____P__PP_P_ SH291965 -11.07 137.53 -1 -11.16 137.53 997 -11.12 137.33 TC -11.07 137.55 1 -11.23 137.82 TC 35 996 2 92
1965 SP EA 23:00:00 TS -11.14 137.59 997 bom 149 139 P_____O__PO_P_ SH291965 -11.08 137.59 -1 -11.20 137.70 997 -11.12 137.37 TC -11.10 137.60 2 -11.28 137.67 TC 35 996 1 145
1965 SP EA 1965-02-23 00:00:00 TS -11.17 137.59 139 124 O_____P__PP_O_ jtwc_sh SH291965 -11.10 137.60 -1 -11.22 137.73 996 -11.14 137.38 TC -11.14 137.60 2 -11.30 137.60 TC 35 996 2 198
1965 SP EA 03:00:00 TS -11.28 137.54 124 109 P_____P__PP_P_ SH291965 -11.23 137.58 -1 -11.30 137.70 996 -11.23 137.37 TC -11.28 137.57 2 -11.42 137.44 TC 35 996 3 211
1965 SP EA 06:00:00 TS -11.42 137.44 109 95 O_____P__PP_O_ jtwc_sh SH291965 -11.40 137.50 -1 -11.40 137.53 996 -11.35 137.30 TC -11.44 137.49 2 -11.50 137.30 TC 35 996 3 225
1965 SP EA 09:00:00 TS -11.51 137.32 95 92 P_____P__PP_P_ SH291965 -11.55 137.42 -1 -11.48 137.29 996 -11.45 137.21 TC -11.56 137.38 2 -11.44 137.19 TC 35 996 3 242
1965 SP EA 11:00:00 TS -11.52 137.23 92 92 P_____P__PO_P_ SH291965 -11.60 137.34 -1 -11.50 137.14 996 -11.49 137.14 TC -11.60 137.30 1 -11.35 137.13 TC 35 996 3 262
1965 SP EA 11:30:00 TS -11.52 137.21 996 bom 92 92 P_____O__PP_P_ SH291965 -11.60 137.32 -1 -11.50 137.10 996 -11.50 137.12 TC -11.59 137.28 1 -11.32 137.12 TC 35 996 3 290
1965 SP EA 12:00:00 TS -11.51 137.19 92 86 O_____P__OP_O_ jtwc_sh SH291965 -11.60 137.30 -1 -11.49 137.08 996 -11.50 137.10 TC 35 996 -11.58 137.26 1 -11.30 137.10 TC 35 996 3 319
1965 SP EA 15:00:00 TS -11.37 137.07 93 93 P_____P__PP_P_ SH291965 -11.43 137.15 -1 -11.38 136.99 996 -11.40 137.02 TC 35 996 -11.45 137.13 1 -11.13 137.01 TC 35 996 4 324
1965 SP EA 18:00:00 TS -11.19 136.95 104 99 O_____P__PP_O_ jtwc_sh SH291965 -11.20 137.00 -1 -11.23 136.90 996 -11.26 136.92 TC 35 996 -11.27 137.00 1 -11.00 136.90 TC 35 996 4 322
1965 SP EA 21:00:00 TS -11.06 136.83 105 105 P_____P__PP_P_ SH291965 -11.06 136.89 -1 -11.09 136.80 996 -11.11 136.81 TC 35 996 -11.09 136.87 1 -10.97 136.75 TC 35 996 3 314
1965 SP EA 23:00:00 TS -11.01 136.76 116 114 P_____P__PO_P_ SH291965 -11.01 136.83 -1 -11.01 136.72 996 -11.03 136.74 TC 35 996 -11.00 136.80 1 -10.99 136.65 TC 35 996 3 304
1965 SP EA 23:30:00 TS -11.00 136.74 996 bom 114 114 P_____O__PP_P_ SH291965 -11.00 136.81 -1 -11.00 136.70 996 -11.02 136.72 TC 35 996 -10.99 136.79 1 -10.99 136.62 TC 35 996 2 290
1965 SP EA 1965-02-24 00:00:00 TS -11.00 136.72 114 112 O_____P__OP_O_ jtwc_sh SH291965 -11.00 136.80 -1 -10.99 136.67 996 -11.00 136.70 TC 35 996 -10.98 136.77 1 -11.00 136.60 TC 35 996 2 269
1965 SP EA 03:00:00 TS -11.00 136.63 112 112 P_____P__PP_P_ SH291965 -11.03 136.74 -1 -10.96 136.49 996 -10.98 136.61 TC -10.98 136.71 1 -11.03 136.49 TC 35 996 2 253
1965 SP EA 06:00:00 TS -11.05 136.55 111 100 O_____P__PP_O_ jtwc_sh SH291965 -11.10 136.70 -1 -10.97 136.30 996 -11.01 136.53 TC -11.01 136.66 1 -11.10 136.40 TC 35 996 2 240
1965 SP EA 08:00:00 TS -11.08 136.50 996 bom 100 100 P_____O__PP_P_ SH291965 -11.10 136.67 -1 -11.00 136.20 996 -11.05 136.48 TC -11.05 136.64 1 -11.16 136.35 TC 35 996 2 238
1965 SP EA 09:00:00 TS -11.09 136.48 100 100 P_____P__PP_P_ SH291965 -11.10 136.65 -1 -11.02 136.17 -11.07 136.45 TC -11.06 136.63 1 -11.19 136.34 TC 35 996 1 231
1965 SP EA 11:00:00 TS -11.13 136.45 101 101 P_____P__PO_P_ SH291965 -11.10 136.62 -1 -11.07 136.12 -11.13 136.41 TC -11.10 136.60 2 -11.26 136.31 TC 35 996 1 228
1965 SP EA 12:00:00 TS -11.14 136.43 101 90 O_____P__PP_O_ jtwc_sh SH291965 -11.10 136.60 -1 -11.10 136.11 -11.16 136.38 TC -11.10 136.59 2 -11.30 136.30 TC 35 996 2 210
1965 SP EA 15:00:00 TS -11.22 136.39 90 79 P_____P__PP_P_ SH291965 -11.15 136.55 -1 -11.21 136.09 -11.25 136.31 TC -11.12 136.55 2 -11.41 136.30 TC 35 996 2 206
1965 SP EA 18:00:00 TS -11.29 136.36 79 79 O_____P__PP_O_ jtwc_sh SH291965 -11.20 136.50 -1 -11.33 136.10 -11.35 136.24 TC -11.13 136.51 2 -11.50 136.30 TC 35 996 1 211
1965 SP EA 21:00:00 TS -11.32 136.32 81 81 P_____P__PP_P_ SH291965 -11.19 136.46 -1 -11.43 136.11 -11.44 136.17 TC -11.17 136.45 2 -11.51 136.26 TC 37 995 1 230
1965 SP EA 23:00:00 TS -11.34 136.28 81 81 P_____P__PO_P_ SH291965 -11.19 136.42 -1 -11.49 136.10 -11.48 136.12 TC -11.20 136.40 2 -11.51 136.23 TC 39 995 1 228
1965 SP EA 23:30:00 TS -11.35 136.27 996 bom 81 70 P_____O__PP_P_ SH291965 -11.19 136.41 -1 -11.50 136.10 996 -11.49 136.11 TC -11.21 136.39 2 -11.50 136.21 TC 39 995 1 0
1965 SP EA 1965-02-25 00:00:00 TS -11.35 136.26 70 70 O_____P__OP_O_ jtwc_sh SH291965 -11.20 136.40 -1 -11.50 136.09 995 -11.50 136.10 TC 35 996 -11.23 136.37 2 -11.50 136.20 TC 40 995 2 241
1965 SP EA 03:00:00 TS -11.40 136.18 74 74 P_____P__PP_P_ SH291965 -11.28 136.32 -1 -11.51 136.04 995 -11.49 136.03 TC 36 995 -11.32 136.27 2 -11.49 136.11 TC 40 995 2 242
1965 SP EA 06:00:00 TS -11.45 136.08 70 70 O_____P__PP_O_ jtwc_sh SH291965 -11.40 136.20 -1 -11.49 135.97 995 -11.48 135.97 TC 37 995 -11.43 136.14 2 -11.50 136.00 TC 40 995 3 243
1965 SP EA 09:00:00 TS -11.51 135.95 68 57 P_____P__PP_P_ SH291965 -11.50 136.01 -1 -11.48 135.88 995 -11.48 135.89 TC 38 995 -11.54 136.00 2 -11.58 135.91 TC 40 994 3 243
1965 SP EA 11:00:00 TS -11.56 135.85 57 55 P_____P__PO_P_ SH291965 -11.57 135.87 -1 -11.49 135.82 995 -11.49 135.83 TC 39 995 -11.60 135.90 2 -11.66 135.84 TC 40 994 3 242
1965 SP EA 11:30:00 TS -11.58 135.83 995 bom 55 55 P_____O__PP_P_ SH291965 -11.58 135.83 -1 -11.50 135.80 995 -11.49 135.82 TC 39 995 -11.61 135.87 2 -11.68 135.82 TC 40 994 3 226
1965 SP EA 12:00:00 TS -11.59 135.80 55 44 O_____P__OP_O_ jtwc_sh SH291965 -11.60 135.80 -1 -11.51 135.78 994 -11.50 135.80 TC 40 995 -11.63 135.85 2 -11.70 135.80 TC 40 994 4 233
1965 SP EA 15:00:00 TS -11.70 135.66 44 33 P_____P__PP_P_ SH291965 -11.71 135.64 -1 -11.62 135.67 994 -11.60 135.69 TC 40 994 -11.70 135.67 2 -11.83 135.65 TC 40 994 3 235
1965 SP EA 18:00:00 TS -11.79 135.52 35 35 O_____P__PP_O_ jtwc_sh SH291965 -11.80 135.50 -1 -11.75 135.54 994 -11.73 135.57 TC 40 994 -11.76 135.49 2 -11.90 135.50 TC 40 994 3 245
1965 SP EA 21:00:00 TS -11.83 135.38 40 40 P_____P__PP_P_ SH291965 -11.82 135.35 -1 -11.86 135.41 994 -11.84 135.43 TC 40 994 -11.79 135.31 2 -11.83 135.40 TC 40 994 3 261
1965 SP EA 23:00:00 TS -11.82 135.28 44 44 P_____P__PO_P_ SH291965 -11.81 135.25 -1 -11.90 135.32 994 -11.89 135.34 TC 40 994 -11.80 135.20 1 -11.74 135.34 TC 40 994 3 273
1965 SP EA 23:30:00 TS -11.82 135.26 994 bom 44 44 P_____O__PP_P_ SH291965 -11.81 135.23 -1 -11.90 135.30 994 -11.90 135.32 TC 40 994 -11.80 135.18 1 -11.72 135.32 TC 40 994 3 284
1965 SP EA 1965-02-26 00:00:00 TS -11.82 135.24 44 44 O_____P__OP_O_ jtwc_sh SH291965 -11.80 135.20 -1 -11.90 135.28 994 -11.90 135.30 TC 40 994 -11.80 135.15 1 -11.70 135.30 TC 40 994 3 291
1965 SP EA 03:00:00 TS -11.76 135.10 46 46 P_____P__PP_P_ SH291965 -11.76 135.04 -1 -11.83 135.16 994 -11.85 135.18 TC 40 994 -11.76 135.02 1 -11.59 135.16 TC 40 994 3 297
1965 SI WA 06:00:00 TS -11.68 134.96 49 46 O_____P__PP_O_ jtwc_sh SH291965 -11.70 134.90 -1 -11.72 135.04 994 -11.74 135.06 TC 40 994 -11.70 134.90 1 -11.50 135.00 TC 40 994 3 303
1965 SI WA 09:00:00 TS -11.60 134.85 55 55 P_____P__PP_P_ SH291965 -11.65 134.80 -1 -11.60 134.91 994 -11.62 134.93 TC 40 994 -11.64 134.78 1 -11.44 134.85 TC 40 994 3 303
1965 SI WA 11:00:00 TS -11.55 134.77 55 55 P_____P__PO_P_ SH291965 -11.62 134.74 -1 -11.52 134.82 994 -11.54 134.85 TC 40 994 -11.60 134.70 1 -11.41 134.75 TC 40 994 3 303
1965 SI WA 11:30:00 TS -11.54 134.75 994 bom 67 67 P_____O__PP_P_ SH291965 -11.61 134.72 -1 -11.50 134.80 994 -11.52 134.82 TC 40 994 -11.59 134.69 1 -11.41 134.73 TC 40 994 3 304
1965 SI WA 12:00:00 TS -11.53 134.73 67 67 O_____P__OP_O_ jtwc_sh SH291965 -11.60 134.70 -1 -11.49 134.78 994 -11.50 134.80 TC 40 994 -11.58 134.68 1 -11.40 134.70 TC 40 994 3 297
1965 SI WA 15:00:00 TS -11.47 134.60 67 67 P_____P__PP_P_ SH291965 -11.54 134.56 -1 -11.42 134.65 994 -11.43 134.67 TC 40 994 -11.54 134.61 1 -11.34 134.56 TC 40 994 3 292
1965 SI WA 18:00:00 TS -11.42 134.46 74 68 O_____P__PP_O_ jtwc_sh SH291965 -11.50 134.40 -1 -11.36 134.51 994 -11.37 134.53 TC 40 994 -11.50 134.53 1 -11.30 134.40 TC 40 994 3 284
1965 SI WA 21:00:00 TS -11.40 134.32 68 62 P_____P__PP_P_ SH291965 -11.48 134.30 -1 -11.32 134.35 994 -11.33 134.38 TC 40 994 -11.49 134.37 1 -11.29 134.22 TC 40 994 3 275
1965 SI WA 23:00:00 TS -11.40 134.19 62 62 P_____P__PO_P_ SH291965 -11.49 134.19 -1 -11.30 134.23 994 -11.31 134.26 TC 40 994 -11.50 134.20 1 -11.30 134.08 TC 40 994 4 270
1965 SI WA 23:30:00 TS -11.40 134.15 994 bom 62 55 P_____O__PP_P_ SH291965 -11.50 134.15 -1 -11.30 134.20 994 4 -11.30 134.23 TC 40 994 -11.50 134.14 1 -11.30 134.04 TC 40 994 5 268
1965 SI WA 1965-02-27 00:00:00 TS -11.40 134.11 55 44 O_____P__OP_O_ jtwc_sh SH291965 -11.50 134.10 -1 -11.29 134.17 994 -11.30 134.20 TC 40 994 -11.51 134.07 1 -11.30 134.00 TC 40 994 6 268
1965 SI WA 03:00:00 TS -11.41 133.78 44 39 P_____P__PP_P_ SH291965 -11.54 133.65 -1 -11.27 133.99 994 -11.28 134.00 TC 40 994 -11.56 133.61 1 -11.29 133.76 TC 40 994 7 266
1965 SI WA 06:00:00 TS -11.45 133.39 39 0 O_____P__PP_O_ jtwc_sh SH291965 -11.60 133.10 -1 -11.26 133.78 994 -11.27 133.78 TC 40 994 -11.64 133.07 1 -11.30 133.50 TC 40 994 8 263
1965 SI WA 09:00:00 TS -11.50 132.99 0 0 P_____P__PP_P_ SH291965 -11.69 132.58 -1 -11.27 133.53 994 -11.28 133.54 TC 40 994 -11.73 132.53 1 -11.34 133.19 TC 40 994 8 261
1965 SI WA 11:00:00 TS -11.55 132.74 0 0 P_____P__PO_P_ SH291965 -11.76 132.25 -1 -11.29 133.35 994 -11.29 133.38 TC 40 994 -11.80 132.20 2 -11.38 132.99 TC 40 994 8 259
1965 SI WA 11:30:00 TS -11.56 132.68 994 bom 0 0 P_____O__PP_P_ SH291965 -11.78 132.17 -1 -11.30 133.30 994 -11.30 133.34 TC 40 994 -11.82 132.13 2 -11.39 132.94 TC 40 994 7 258
1965 SI WA 12:00:00 TS -11.57 132.62 0 0 O_____P__OP_O_ jtwc_sh SH291965 -11.80 132.10 -1 -11.31 133.25 994 -11.30 133.30 TC 40 994 -11.83 132.05 2 -11.40 132.90 TC 40 994 6 260
1965 SI WA 15:00:00 TS -11.62 132.35 15 11 P_____P__PP_P_ SH291965 -11.90 131.72 -1 -11.36 132.90 994 -11.32 133.05 TC 38 994 -11.93 131.68 2 -11.43 132.68 TC 40 994 5 261
1965 SI WA 17:00:00 TS -11.63 132.23 994 bom 11 11 P_____O__PP_P_ SH291965 -11.97 131.50 -1 -11.40 132.70 994 -11.33 132.88 TC 37 994 -12.00 131.48 2 -11.47 132.56 TC 40 994 2 288
1965 SI WA 18:00:00 TS -11.60 132.27 15 11 O_____P__PP_O_ jtwc_sh SH291965 -12.00 131.40 -1 -11.41 132.62 994 -11.35 132.79 TC 37 995 -12.03 131.39 2 -11.50 132.50 TC 40 995 1 28
1965 SI WA 21:00:00 TS -11.59 132.24 11 11 ______P__PP_P_ SH291965 -1 -11.45 132.43 995 -11.41 132.54 TC 36 995 -12.13 131.15 2 -11.63 132.30 TC 37 995 1 258
1965 SI WA 23:00:00 TS -11.61 132.19 11 11 ______P__PO_P_ SH291965 -1 -11.49 132.33 995 -11.46 132.38 TC 35 995 -12.20 131.00 1 -11.74 132.17 TC 35 995 0 0
1965 SI WA 23:30:00 TS -11.58 132.26 996 bom 15 11 ______O__P__P_ SH291965 -1 -11.50 132.30 996 -11.48 132.34 TC 35 995 1 -11.77 132.13 TC 35 995 2 80
1965 SI WA 1965-02-28 00:00:00 TS -11.61 132.22 11 11 ______P__O__O_ -1 -11.52 132.27 996 -11.50 132.30 TC 35 996 1 -11.80 132.10 TC 35 996 5 235
1965 SI WA 03:00:00 TS -11.75 132.02 24 24 ______P__P__P_ -1 -11.64 132.07 996 -11.62 132.09 TC 35 996 1 -11.98 131.90 TC 35 996 5 231
1965 SI WA 06:00:00 TS -11.93 131.82 44 22 ______P__P__O_ -1 -11.80 131.87 997 -11.78 131.88 TC 35 997 1 -12.20 131.70 TC 35 997 6 225
1965 SI WA 09:00:00 TS -12.14 131.62 22 0 ______P__P__P_ -1 -12.01 131.67 997 -11.98 131.69 TC 35 997 1 -12.43 131.50 TC 35 997 6 221
1965 SI WA 11:30:00 TS -12.34 131.46 998 bom 0 0 ______O__P__P_ -1 -12.20 131.50 998 -12.16 131.53 TC 35 997 -12.65 131.33 TC 35 997 6 219
1965 SI WA 12:00:00 TS -12.38 131.42 0 0 ______P__O__O_ -1 -12.23 131.46 998 -12.20 131.50 TC 35 998 -12.70 131.30 TC 35 998 6 224
1965 SI WA 15:00:00 TS -12.59 131.21 0 0 ______P__P__P_ -1 -12.43 131.25 998 -12.39 131.28 TC 33 998 -12.96 131.08 TC 32 998 6 220
1965 SI WA 18:00:00 TS -12.86 131.00 0 0 ______P__P__O_ -1 -12.67 131.04 998 -12.62 131.07 TC 32 998 -13.30 130.90 TC 30 999 7 210
1965 SI WA 21:00:00 TS -13.23 130.83 0 0 ______P__P__P_ -1 -12.97 130.84 998 -12.92 130.87 TC 31 998 -13.80 130.78 TC 30 999 9 201
1965 SI WA 23:30:00 TS -13.61 130.71 999 bom 0 0 ______O__P__P_ -1 -13.30 130.70 999 -13.23 130.73 TC 30 998 -14.30 130.71 TC 30 999 8 199
1965 SI WA 1965-03-01 00:00:00 TS -13.63 130.69 0 0 ______P__O__O_ -1 -13.37 130.68 999 -13.30 130.70 TC 30 999 -14.40 130.70 TC 30 999 8 197
1965 SI WA 03:00:00 TS -14.07 130.57 0 0 ______P__P__P_ -1 -13.89 130.55 999 -13.79 130.57 TC 30 999 -15.00 130.61 TC 30 999 10 193
1965 SI WA 06:00:00 TS -14.57 130.46 0 0 ______P__P__O_ -1 -14.48 130.45 999 -14.38 130.46 TC 30 999 -15.60 130.50 TC 30 999 10 191
1965 SI WA 09:00:00 TS -15.07 130.37 0 0 ______P__P____ -1 -15.14 130.36 999 -15.03 130.38 TC 30 999 TC 12 188
1965 SI WA 11:30:00 TS -15.62 130.31 999 bom 0 0 ______O__P____ -1 -15.70 130.30 999 -15.59 130.31 TC 30 999 TC 13 186
1965 SI WA 12:00:00 TS -15.70 130.30 0 _________O____ -1 -15.70 130.30 TC 30 999 9 197